Nearby METAR Reports

 

KDWH - Houston/Dw Hooks, Texas, USA
Distance from station: WNW 3mi, 6km
Updated: 01/26/2021 4:53am
Clear
Clear
 Wind from SSE
Wind: SSE 6 mph , 9 km/h
Temperature: 54°F , 12°C
Dew Point: 45°F , 7°C
Humidity: 72%
Barometer: 29.83 inHg , 1010.2 hPa
Clouds: Clear
Visibility: 10 miles , 16 km
2021/01/26 10:53 KDWH 261053Z AUTO 15005KT 10SM CLR 12/07 A2983 RMK AO2 SLP098 T01220072
KIAH - Houston/Intnl, Texas, USA
Distance from station: ESE 9mi, 14km
Updated: 01/26/2021 4:53am
Mostly cloudy
Mostly cloudy
 Wind from calm
Wind: Calm
Temperature: 55°F , 13°C
Dew Point: 48°F , 9°C
Humidity: 77%
Barometer: 29.82 inHg , 1009.8 hPa
Clouds: Mostly cloudy
Visibility: 10 miles , 16 km
Cloud details: Few Clouds 8000 ft
Mostly cloudy 25000 ft
2021/01/26 10:53 KIAH 261053Z 00000KT 10SM FEW080 BKN250 13/09 A2982 RMK AO2 SLP099 T01280089
 
KCXO - Conroe, Texas, USA
Distance from station: NNE 21mi, 34km
Updated: 01/26/2021 4:53am
Clear
Clear
 Wind from NNW
Wind: NNW 3 mph , 6 km/h
Temperature: 46°F , 8°C
Dew Point: 43°F , 6°C
Humidity: 87%
Barometer: 29.83 inHg , 1010.2 hPa
Clouds: Clear
Visibility: 10 miles , 16 km
2021/01/26 10:53 KCXO 261053Z AUTO 33003KT 10SM CLR 08/06 A2983 RMK AO2 SLP100 T00780061
KMCJ - Houston/Univ, Texas, USA
Distance from station: SSE 24mi, 39km
Updated: 01/26/2021 5:35am
Overcast
Overcast
 Wind from E
Wind: E 10 mph , 17 km/h
Temperature: 66°F , 19°C
Dew Point: 41°F , 5°C
Humidity: 40%
Barometer: 29.81 inHg , 1009.5 hPa
Clouds: Overcast
Visibility: 10 miles , 16 km
Cloud details: Partly cloudy 4500 ft
Overcast 9000 ft
2021/01/26 11:35 KMCJ 261135Z AUTO 08009KT 10SM SCT045 OVC090 19/05 A2981 RMK A01
 
KTME - Houston Exec, Texas, USA
Distance from station: SW 30mi, 48km
Updated: 01/26/2021 5:35am
Overcast
Overcast
 Wind from calm
Wind: Calm
Temperature: 57°F , 14°C
Dew Point: 48°F , 9°C
Humidity: 72%
Barometer: 29.84 inHg , 1010.5 hPa
Clouds: Overcast
Visibility: 10 miles , 16 km
Cloud details: Overcast 9000 ft
2021/01/26 11:35 KTME 261135Z AUTO 00000KT 10SM OVC090 14/09 A2984 RMK AO2
KHOU - Houston/Hobby, Texas, USA
Distance from station: SSE 32mi, 51km
Updated: 01/26/2021 4:53am
Partly cloudy
Partly cloudy
 Wind from E
Wind: E 3 mph , 6 km/h
Temperature: 63°F , 17°C
Dew Point: 46°F , 8°C
Humidity: 56%
Barometer: 29.81 inHg , 1009.5 hPa
Clouds: Partly cloudy
Visibility: 10 miles , 16 km
Cloud details: Partly cloudy 9000 ft
Partly cloudy 18000 ft
2021/01/26 10:53 KHOU 261053Z 10003KT 10SM SCT090 SCT180 17/08 A2981 RMK AO2 SLP100 T01720083
 
KSGR - Houston/Sugar La, Texas, USA
Distance from station: SSW 32mi, 51km
Updated: 01/26/2021 4:53am
Partly cloudy
Partly cloudy
 Wind from calm
Wind: Calm
Temperature: 59°F , 15°C
Dew Point: 48°F , 9°C
Humidity: 68%
Barometer: 29.82 inHg , 1009.8 hPa
Clouds: Partly cloudy
Visibility: 10 miles , 16 km
Cloud details: Partly cloudy 9500 ft
2021/01/26 10:53 KSGR 261053Z AUTO 00000KT 10SM SCT095 15/09 A2982 RMK AO2 SLP098 T01500089
K6R3 - Cleveland Muni, Texas, USA
Distance from station: NE 36mi, 58km
Updated: 01/26/2021 5:35am
Mostly cloudy
Mostly cloudy
 Wind from calm
Wind: Calm
Temperature: 50°F , 10°C
Dew Point: 50°F , 10°C
Humidity: 100%
Barometer: 29.85 inHg , 1010.8 hPa
Clouds: Mostly cloudy
Visibility: 7 miles , 11 km
Cloud details: Mostly cloudy 10000 ft
2021/01/26 11:35 K6R3 261135Z AUTO 00000KT 7SM BKN100 10/10 A2985 RMK AO2 T01010100
 
KAXH - Houston/Southwst, Texas, USA
Distance from station: S 37mi, 60km
Updated: 01/26/2021 5:35am
Mostly cloudy
Mostly cloudy
 Wind from calm
Wind: Calm
Temperature: 61°F , 16°C
Dew Point: 52°F , 11°C
Humidity: 72%
Barometer: 29.83 inHg , 1010.2 hPa
Clouds: Mostly cloudy
Visibility: 10 miles , 16 km
Cloud details: Mostly cloudy 8500 ft
2021/01/26 11:35 KAXH 261135Z AUTO 00000KT 10SM BKN085 16/11 A2983 RMK AO2 T01560107
KEFD - Houston/Ellingto, Texas, USA
Distance from station: SSE 37mi, 60km
Updated: 01/26/2021 4:50am
Overcast
Overcast
 Wind from E
Wind: E 5 mph , 7 km/h
Temperature: 61°F , 16°C
Dew Point: 50°F , 10°C
Humidity: 68%
Barometer: 29.82 inHg , 1009.8 hPa
Clouds: Overcast
Visibility: 10 miles , 16 km
Cloud details: Partly cloudy 4800 ft
Overcast 7500 ft
2021/01/26 10:50 KEFD 261050Z 09004KT 10SM SCT048 OVC075 16/10 A2982
 
KLVJ - Houston, Texas, USA
Distance from station: SSE 40mi, 64km
Updated: 01/26/2021 4:53am
Partly cloudy
Partly cloudy
 Wind from N
Wind: N 3 mph , 6 km/h
Temperature: 63°F , 17°C
Dew Point: 52°F , 11°C
Humidity: 68%
Barometer: 29.83 inHg , 1010.2 hPa
Clouds: Partly cloudy
Visibility: 10 miles , 16 km
Cloud details: Few Clouds 5000 ft
Partly cloudy 6500 ft
2021/01/26 10:53 KLVJ 261053Z AUTO 01003KT 10SM FEW050 SCT065 17/11 A2983 RMK AO2 SLP099 T01670106
KUTS - Huntsville, Texas, USA
Distance from station: N 48mi, 78km
Updated: 01/26/2021 4:53am
Clear
Clear
 Wind from S
Wind: S 3 mph , 6 km/h
Temperature: 48°F , 9°C
Dew Point: 45°F , 7°C
Humidity: 87%
Barometer: 29.85 inHg , 1010.8 hPa
Clouds: Clear
Visibility: 10 miles , 16 km
2021/01/26 10:53 KUTS 261053Z AUTO 18003KT 10SM CLR 09/07 A2985 RMK AO2 SLP104 T00940067